sensor_id;sensor_type;location;lat;lon;timestamp;temperature;humidity
5578;DHT22;2811;51.900;10.734;2023-03-01T00:01:27;-1.80;99.90
5578;DHT22;2811;51.900;10.734;2023-03-01T00:03:55;-1.90;99.90
5578;DHT22;2811;51.900;10.734;2023-03-01T00:06:22;-2.00;99.90
5578;DHT22;2811;51.900;10.734;2023-03-01T00:08:49;-2.10;99.90
5578;DHT22;2811;51.900;10.734;2023-03-01T00:11:19;-2.10;99.90
5578;DHT22;2811;51.900;10.734;2023-03-01T00:13:48;-2.00;99.90
5578;DHT22;2811;51.900;10.734;2023-03-01T00:16:17;-1.70;99.90
5578;DHT22;2811;51.900;10.734;2023-03-01T00:18:44;-1.90;99.90
5578;DHT22;2811;51.900;10.734;2023-03-01T00:21:11;-1.90;99.90
5578;DHT22;2811;51.900;10.734;2023-03-01T00:23:38;-1.90;99.90
5578;DHT22;2811;51.900;10.734;2023-03-01T00:26:06;-1.90;99.90
5578;DHT22;2811;51.900;10.734;2023-03-01T00:28:35;-1.80;99.90
5578;DHT22;2811;51.900;10.734;2023-03-01T00:31:05;-1.70;99.90
5578;DHT22;2811;51.900;10.734;2023-03-01T00:33:33;-1.60;99.90
5578;DHT22;2811;51.900;10.734;2023-03-01T00:36:00;-1.60;99.90
5578;DHT22;2811;51.900;10.734;2023-03-01T00:38:27;-1.50;99.90
5578;DHT22;2811;51.900;10.734;2023-03-01T00:40:54;-1.80;99.90
5578;DHT22;2811;51.900;10.734;2023-03-01T00:43:21;-1.80;99.90
5578;DHT22;2811;51.900;10.734;2023-03-01T00:45:49;-2.00;99.90
5578;DHT22;2811;51.900;10.734;2023-03-01T00:48:16;-2.00;99.90
5578;DHT22;2811;51.900;10.734;2023-03-01T00:50:45;-2.00;99.90
5578;DHT22;2811;51.900;10.734;2023-03-01T00:53:12;-1.80;99.90
5578;DHT22;2811;51.900;10.734;2023-03-01T00:55:38;-1.80;99.90
5578;DHT22;2811;51.900;10.734;2023-03-01T00:58:05;-1.90;99.90
5578;DHT22;2811;51.900;10.734;2023-03-01T01:00:32;-1.90;99.90
5578;DHT22;2811;51.900;10.734;2023-03-01T01:03:01;-1.70;99.90
5578;DHT22;2811;51.900;10.734;2023-03-01T01:05:27;-1.50;99.90
5578;DHT22;2811;51.900;10.734;2023-03-01T01:07:54;-1.50;99.90
5578;DHT22;2811;51.900;10.734;2023-03-01T01:10:21;-1.50;99.90
5578;DHT22;2811;51.900;10.734;2023-03-01T01:12:57;-1.60;99.90
5578;DHT22;2811;51.900;10.734;2023-03-01T01:15:24;-1.60;99.90
5578;DHT22;2811;51.900;10.734;2023-03-01T01:17:50;-1.80;99.90
5578;DHT22;2811;51.900;10.734;2023-03-01T01:20:19;-2.00;99.90
5578;DHT22;2811;51.900;10.734;2023-03-01T01:22:45;-2.00;99.90
5578;DHT22;2811;51.900;10.734;2023-03-01T01:25:12;-2.10;99.90
5578;DHT22;2811;51.900;10.734;2023-03-01T01:27:39;-2.20;99.90
5578;DHT22;2811;51.900;10.734;2023-03-01T01:30:07;-2.10;99.90
5578;DHT22;2811;51.900;10.734;2023-03-01T01:32:34;-2.10;99.90
5578;DHT22;2811;51.900;10.734;2023-03-01T01:35:01;-2.20;99.90
5578;DHT22;2811;51.900;10.734;2023-03-01T01:37:29;-2.30;99.90
5578;DHT22;2811;51.900;10.734;2023-03-01T01:39:57;-2.30;99.90
5578;DHT22;2811;51.900;10.734;2023-03-01T01:42:25;-2.40;99.90
5578;DHT22;2811;51.900;10.734;2023-03-01T01:45:26;-2.30;99.90
5578;DHT22;2811;51.900;10.734;2023-03-01T01:47:57;-2.20;99.90
5578;DHT22;2811;51.900;10.734;2023-03-01T01:50:25;-2.30;99.90
5578;DHT22;2811;51.900;10.734;2023-03-01T01:52:54;-2.20;99.90
5578;DHT22;2811;51.900;10.734;2023-03-01T01:55:24;-2.40;99.90
5578;DHT22;2811;51.900;10.734;2023-03-01T01:57:56;-2.60;99.90
5578;DHT22;2811;51.900;10.734;2023-03-01T02:00:26;-2.60;99.90
5578;DHT22;2811;51.900;10.734;2023-03-01T02:02:56;-2.60;99.90
5578;DHT22;2811;51.900;10.734;2023-03-01T02:05:26;-2.60;99.90
5578;DHT22;2811;51.900;10.734;2023-03-01T02:07:57;-2.70;99.90
5578;DHT22;2811;51.900;10.734;2023-03-01T02:10:24;-2.60;99.90
5578;DHT22;2811;51.900;10.734;2023-03-01T02:12:52;-2.70;99.90
5578;DHT22;2811;51.900;10.734;2023-03-01T02:15:19;-2.70;99.90
5578;DHT22;2811;51.900;10.734;2023-03-01T02:17:46;-2.70;99.90
5578;DHT22;2811;51.900;10.734;2023-03-01T02:20:27;-2.80;99.90
5578;DHT22;2811;51.900;10.734;2023-03-01T02:22:58;-2.80;99.90
5578;DHT22;2811;51.900;10.734;2023-03-01T02:25:31;-2.70;99.90
5578;DHT22;2811;51.900;10.734;2023-03-01T02:28:08;-2.50;99.90
5578;DHT22;2811;51.900;10.734;2023-03-01T02:30:38;-2.40;99.90
5578;DHT22;2811;51.900;10.734;2023-03-01T02:33:25;-2.00;99.90
5578;DHT22;2811;51.900;10.734;2023-03-01T02:35:53;-2.20;99.90
5578;DHT22;2811;51.900;10.734;2023-03-01T02:38:21;-2.10;99.90
5578;DHT22;2811;51.900;10.734;2023-03-01T02:40:49;-2.20;99.90
5578;DHT22;2811;51.900;10.734;2023-03-01T02:43:17;-2.20;99.90
5578;DHT22;2811;51.900;10.734;2023-03-01T02:45:50;-2.30;99.90
5578;DHT22;2811;51.900;10.734;2023-03-01T02:48:18;-2.40;99.90
5578;DHT22;2811;51.900;10.734;2023-03-01T02:50:54;-2.40;99.90
5578;DHT22;2811;51.900;10.734;2023-03-01T02:53:28;-2.30;99.90
5578;DHT22;2811;51.900;10.734;2023-03-01T02:56:01;-2.40;99.90
5578;DHT22;2811;51.900;10.734;2023-03-01T02:58:27;-2.40;99.90
5578;DHT22;2811;51.900;10.734;2023-03-01T03:00:56;-2.50;99.90
5578;DHT22;2811;51.900;10.734;2023-03-01T03:03:26;-2.50;99.90
5578;DHT22;2811;51.900;10.734;2023-03-01T03:05:53;-2.70;99.90
5578;DHT22;2811;51.900;10.734;2023-03-01T03:08:19;-2.90;99.90
5578;DHT22;2811;51.900;10.734;2023-03-01T03:10:49;-3.10;99.90
5578;DHT22;2811;51.900;10.734;2023-03-01T03:13:16;-3.10;99.90
5578;DHT22;2811;51.900;10.734;2023-03-01T03:15:43;-3.00;99.90
5578;DHT22;2811;51.900;10.734;2023-03-01T03:18:14;-2.90;99.90
5578;DHT22;2811;51.900;10.734;2023-03-01T03:20:42;-2.80;99.90
5578;DHT22;2811;51.900;10.734;2023-03-01T03:23:09;-2.70;99.90
5578;DHT22;2811;51.900;10.734;2023-03-01T03:25:36;-2.70;99.90
5578;DHT22;2811;51.900;10.734;2023-03-01T03:28:04;-2.70;99.90
5578;DHT22;2811;51.900;10.734;2023-03-01T03:30:36;-2.70;99.90
5578;DHT22;2811;51.900;10.734;2023-03-01T03:33:05;-2.70;99.90
5578;DHT22;2811;51.900;10.734;2023-03-01T03:35:38;-2.60;99.90
5578;DHT22;2811;51.900;10.734;2023-03-01T03:38:07;-2.90;99.90
5578;DHT22;2811;51.900;10.734;2023-03-01T03:40:43;-2.50;99.90
5578;DHT22;2811;51.900;10.734;2023-03-01T03:43:12;-2.50;99.90
5578;DHT22;2811;51.900;10.734;2023-03-01T03:45:39;-2.50;99.90
5578;DHT22;2811;51.900;10.734;2023-03-01T03:48:08;-2.70;99.90
5578;DHT22;2811;51.900;10.734;2023-03-01T03:50:37;-2.80;99.90
5578;DHT22;2811;51.900;10.734;2023-03-01T03:53:06;-2.80;99.90
5578;DHT22;2811;51.900;10.734;2023-03-01T03:55:33;-2.80;99.90
5578;DHT22;2811;51.900;10.734;2023-03-01T03:58:01;-2.80;99.90
5578;DHT22;2811;51.900;10.734;2023-03-01T04:00:33;-2.70;99.90
5578;DHT22;2811;51.900;10.734;2023-03-01T04:03:00;-3.10;99.90
5578;DHT22;2811;51.900;10.734;2023-03-01T04:05:27;-3.10;99.90
5578;DHT22;2811;51.900;10.734;2023-03-01T04:07:56;-3.00;99.90
5578;DHT22;2811;51.900;10.734;2023-03-01T04:10:28;-2.90;99.90
5578;DHT22;2811;51.900;10.734;2023-03-01T04:12:55;-2.80;99.90
5578;DHT22;2811;51.900;10.734;2023-03-01T04:15:23;-2.70;99.90
5578;DHT22;2811;51.900;10.734;2023-03-01T04:17:51;-2.80;99.90
5578;DHT22;2811;51.900;10.734;2023-03-01T04:20:21;-3.00;99.90
5578;DHT22;2811;51.900;10.734;2023-03-01T04:22:51;-3.00;99.90
5578;DHT22;2811;51.900;10.734;2023-03-01T04:25:19;-3.00;99.90
5578;DHT22;2811;51.900;10.734;2023-03-01T04:27:46;-3.00;99.90
5578;DHT22;2811;51.900;10.734;2023-03-01T04:30:13;-3.10;99.90
5578;DHT22;2811;51.900;10.734;2023-03-01T04:32:40;-3.10;99.90
5578;DHT22;2811;51.900;10.734;2023-03-01T04:35:07;-3.10;99.90
5578;DHT22;2811;51.900;10.734;2023-03-01T04:37:34;-3.00;99.90
5578;DHT22;2811;51.900;10.734;2023-03-01T04:40:02;-3.00;99.90
5578;DHT22;2811;51.900;10.734;2023-03-01T04:42:39;-3.00;99.90
5578;DHT22;2811;51.900;10.734;2023-03-01T04:45:06;-3.20;99.90
5578;DHT22;2811;51.900;10.734;2023-03-01T04:47:38;-2.80;99.90
5578;DHT22;2811;51.900;10.734;2023-03-01T04:50:06;-2.90;99.90
5578;DHT22;2811;51.900;10.734;2023-03-01T04:52:34;-2.90;99.90
5578;DHT22;2811;51.900;10.734;2023-03-01T04:55:01;-2.90;99.90
5578;DHT22;2811;51.900;10.734;2023-03-01T04:57:29;-2.80;99.90
5578;DHT22;2811;51.900;10.734;2023-03-01T04:59:57;-2.80;99.90
5578;DHT22;2811;51.900;10.734;2023-03-01T05:02:24;-2.90;99.90
5578;DHT22;2811;51.900;10.734;2023-03-01T05:04:51;-3.10;99.90
5578;DHT22;2811;51.900;10.734;2023-03-01T05:07:17;-2.60;99.90
5578;DHT22;2811;51.900;10.734;2023-03-01T05:09:45;-3.10;99.90
5578;DHT22;2811;51.900;10.734;2023-03-01T05:12:12;-3.10;99.90
5578;DHT22;2811;51.900;10.734;2023-03-01T05:14:39;-3.10;99.90
5578;DHT22;2811;51.900;10.734;2023-03-01T05:17:08;-3.10;99.90
5578;DHT22;2811;51.900;10.734;2023-03-01T05:19:34;-2.70;99.90
5578;DHT22;2811;51.900;10.734;2023-03-01T05:22:01;-3.10;99.90
5578;DHT22;2811;51.900;10.734;2023-03-01T05:24:30;-3.00;99.90
5578;DHT22;2811;51.900;10.734;2023-03-01T05:26:57;-3.10;99.90
5578;DHT22;2811;51.900;10.734;2023-03-01T05:29:26;-3.20;99.90
5578;DHT22;2811;51.900;10.734;2023-03-01T05:31:54;-3.10;99.90
5578;DHT22;2811;51.900;10.734;2023-03-01T05:34:25;-3.20;99.90
5578;DHT22;2811;51.900;10.734;2023-03-01T05:36:52;-3.10;99.90
5578;DHT22;2811;51.900;10.734;2023-03-01T05:39:20;-3.00;99.90
5578;DHT22;2811;51.900;10.734;2023-03-01T05:41:47;-3.10;99.90
5578;DHT22;2811;51.900;10.734;2023-03-01T05:44:14;-3.10;99.90
5578;DHT22;2811;51.900;10.734;2023-03-01T05:46:41;-2.80;99.90
5578;DHT22;2811;51.900;10.734;2023-03-01T05:49:08;-3.30;99.90
5578;DHT22;2811;51.900;10.734;2023-03-01T05:51:36;-3.30;99.90
5578;DHT22;2811;51.900;10.734;2023-03-01T05:54:03;-3.30;99.90
5578;DHT22;2811;51.900;10.734;2023-03-01T05:56:32;-3.30;99.90
5578;DHT22;2811;51.900;10.734;2023-03-01T05:58:59;-3.30;99.90
5578;DHT22;2811;51.900;10.734;2023-03-01T06:01:26;-3.40;99.90
5578;DHT22;2811;51.900;10.734;2023-03-01T06:03:53;-3.40;99.90
5578;DHT22;2811;51.900;10.734;2023-03-01T06:06:20;-3.30;99.90
5578;DHT22;2811;51.900;10.734;2023-03-01T06:08:48;-3.10;99.90
5578;DHT22;2811;51.900;10.734;2023-03-01T06:11:15;-3.30;99.90
5578;DHT22;2811;51.900;10.734;2023-03-01T06:13:42;-3.30;99.90
5578;DHT22;2811;51.900;10.734;2023-03-01T06:16:09;-3.30;99.90
5578;DHT22;2811;51.900;10.734;2023-03-01T06:18:36;-3.20;99.90
5578;DHT22;2811;51.900;10.734;2023-03-01T06:21:03;-3.40;99.90
5578;DHT22;2811;51.900;10.734;2023-03-01T06:23:31;-3.40;99.90
5578;DHT22;2811;51.900;10.734;2023-03-01T06:25:59;-3.40;99.90
5578;DHT22;2811;51.900;10.734;2023-03-01T06:28:26;-2.80;99.90
5578;DHT22;2811;51.900;10.734;2023-03-01T06:30:53;-3.40;99.90
5578;DHT22;2811;51.900;10.734;2023-03-01T06:33:19;-3.40;99.90
5578;DHT22;2811;51.900;10.734;2023-03-01T06:35:48;-3.40;99.90
5578;DHT22;2811;51.900;10.734;2023-03-01T06:38:15;-2.80;99.90
5578;DHT22;2811;51.900;10.734;2023-03-01T06:40:44;-3.20;99.90
5578;DHT22;2811;51.900;10.734;2023-03-01T06:43:12;-3.00;99.90
5578;DHT22;2811;51.900;10.734;2023-03-01T06:45:39;-2.40;99.90
5578;DHT22;2811;51.900;10.734;2023-03-01T06:48:07;-2.80;99.90
5578;DHT22;2811;51.900;10.734;2023-03-01T06:50:35;-2.70;99.90
5578;DHT22;2811;51.900;10.734;2023-03-01T06:53:02;-2.70;99.90
5578;DHT22;2811;51.900;10.734;2023-03-01T06:55:29;-2.80;99.90
5578;DHT22;2811;51.900;10.734;2023-03-01T06:57:56;-2.60;99.90
5578;DHT22;2811;51.900;10.734;2023-03-01T07:00:25;-2.50;99.90
5578;DHT22;2811;51.900;10.734;2023-03-01T07:02:52;-2.30;99.90
5578;DHT22;2811;51.900;10.734;2023-03-01T07:05:19;-2.20;99.90
5578;DHT22;2811;51.900;10.734;2023-03-01T07:07:46;-2.10;99.90
5578;DHT22;2811;51.900;10.734;2023-03-01T07:10:13;-1.80;99.90
5578;DHT22;2811;51.900;10.734;2023-03-01T07:12:40;-1.70;99.90
5578;DHT22;2811;51.900;10.734;2023-03-01T07:15:09;-1.50;99.90
5578;DHT22;2811;51.900;10.734;2023-03-01T07:17:38;-1.30;99.90
5578;DHT22;2811;51.900;10.734;2023-03-01T07:20:05;-1.30;99.90
5578;DHT22;2811;51.900;10.734;2023-03-01T07:22:32;-1.30;99.90
5578;DHT22;2811;51.900;10.734;2023-03-01T07:24:58;-1.20;99.90
5578;DHT22;2811;51.900;10.734;2023-03-01T07:27:25;-0.50;99.90
5578;DHT22;2811;51.900;10.734;2023-03-01T07:29:52;-0.60;99.90
5578;DHT22;2811;51.900;10.734;2023-03-01T07:32:18;-0.40;99.90
5578;DHT22;2811;51.900;10.734;2023-03-01T07:34:46;0.00;99.90
5578;DHT22;2811;51.900;10.734;2023-03-01T07:37:13;0.20;99.90
5578;DHT22;2811;51.900;10.734;2023-03-01T07:39:40;0.70;99.90
5578;DHT22;2811;51.900;10.734;2023-03-01T07:42:07;0.30;99.90
5578;DHT22;2811;51.900;10.734;2023-03-01T07:44:34;0.50;99.90
5578;DHT22;2811;51.900;10.734;2023-03-01T07:47:01;0.80;99.90
5578;DHT22;2811;51.900;10.734;2023-03-01T07:49:27;1.30;99.90
5578;DHT22;2811;51.900;10.734;2023-03-01T07:51:55;1.70;99.90
5578;DHT22;2811;51.900;10.734;2023-03-01T07:54:22;1.80;99.90
5578;DHT22;2811;51.900;10.734;2023-03-01T07:56:48;1.90;99.90
5578;DHT22;2811;51.900;10.734;2023-03-01T07:59:15;2.00;99.90
5578;DHT22;2811;51.900;10.734;2023-03-01T08:01:42;2.20;99.90
5578;DHT22;2811;51.900;10.734;2023-03-01T08:04:08;2.40;99.90
5578;DHT22;2811;51.900;10.734;2023-03-01T08:06:35;2.70;99.90
5578;DHT22;2811;51.900;10.734;2023-03-01T08:09:04;2.90;99.90
5578;DHT22;2811;51.900;10.734;2023-03-01T08:11:30;3.20;99.90
5578;DHT22;2811;51.900;10.734;2023-03-01T08:13:57;3.20;99.90
5578;DHT22;2811;51.900;10.734;2023-03-01T08:16:24;3.40;99.90
5578;DHT22;2811;51.900;10.734;2023-03-01T08:18:50;3.60;99.90
5578;DHT22;2811;51.900;10.734;2023-03-01T08:21:17;3.50;99.90
5578;DHT22;2811;51.900;10.734;2023-03-01T08:23:45;3.60;99.90
5578;DHT22;2811;51.900;10.734;2023-03-01T08:26:14;3.70;99.90
5578;DHT22;2811;51.900;10.734;2023-03-01T08:28:41;3.80;99.90
5578;DHT22;2811;51.900;10.734;2023-03-01T08:31:15;3.90;99.90
5578;DHT22;2811;51.900;10.734;2023-03-01T08:33:42;4.00;99.90
5578;DHT22;2811;51.900;10.734;2023-03-01T08:36:09;4.10;99.90
5578;DHT22;2811;51.900;10.734;2023-03-01T08:38:35;4.10;99.90
5578;DHT22;2811;51.900;10.734;2023-03-01T08:41:03;4.30;99.90
5578;DHT22;2811;51.900;10.734;2023-03-01T08:43:31;4.60;99.90
5578;DHT22;2811;51.900;10.734;2023-03-01T08:45:57;4.30;99.90
5578;DHT22;2811;51.900;10.734;2023-03-01T08:48:24;4.30;99.90
5578;DHT22;2811;51.900;10.734;2023-03-01T08:50:51;4.40;99.90
5578;DHT22;2811;51.900;10.734;2023-03-01T08:53:18;4.50;99.90
5578;DHT22;2811;51.900;10.734;2023-03-01T08:55:44;4.40;99.90
5578;DHT22;2811;51.900;10.734;2023-03-01T08:58:11;4.60;99.90
5578;DHT22;2811;51.900;10.734;2023-03-01T09:00:39;4.70;99.90
5578;DHT22;2811;51.900;10.734;2023-03-01T09:03:06;4.90;99.90
5578;DHT22;2811;51.900;10.734;2023-03-01T09:05:33;4.80;99.90
5578;DHT22;2811;51.900;10.734;2023-03-01T09:08:02;4.70;99.90
5578;DHT22;2811;51.900;10.734;2023-03-01T09:10:28;4.70;99.90
5578;DHT22;2811;51.900;10.734;2023-03-01T09:12:55;4.90;99.90
5578;DHT22;2811;51.900;10.734;2023-03-01T09:15:22;5.00;99.90
5578;DHT22;2811;51.900;10.734;2023-03-01T09:17:50;5.10;99.90
5578;DHT22;2811;51.900;10.734;2023-03-01T09:20:17;5.10;99.90
5578;DHT22;2811;51.900;10.734;2023-03-01T09:22:44;5.00;99.90
5578;DHT22;2811;51.900;10.734;2023-03-01T09:25:10;4.90;99.90
5578;DHT22;2811;51.900;10.734;2023-03-01T09:27:37;4.90;99.90
5578;DHT22;2811;51.900;10.734;2023-03-01T09:30:04;4.90;99.90
5578;DHT22;2811;51.900;10.734;2023-03-01T09:32:31;4.90;99.90
5578;DHT22;2811;51.900;10.734;2023-03-01T09:34:59;4.80;99.90
5578;DHT22;2811;51.900;10.734;2023-03-01T09:37:30;4.80;99.90
5578;DHT22;2811;51.900;10.734;2023-03-01T09:39:57;5.00;99.90
5578;DHT22;2811;51.900;10.734;2023-03-01T09:42:24;4.80;99.90
5578;DHT22;2811;51.900;10.734;2023-03-01T09:44:53;4.90;99.90
5578;DHT22;2811;51.900;10.734;2023-03-01T09:47:24;4.90;99.90
5578;DHT22;2811;51.900;10.734;2023-03-01T09:50:00;5.20;99.90
5578;DHT22;2811;51.900;10.734;2023-03-01T09:52:34;5.20;99.90
5578;DHT22;2811;51.900;10.734;2023-03-01T09:55:09;5.50;99.90
5578;DHT22;2811;51.900;10.734;2023-03-01T09:57:41;5.30;99.90
5578;DHT22;2811;51.900;10.734;2023-03-01T10:00:16;5.10;99.90
5578;DHT22;2811;51.900;10.734;2023-03-01T10:02:47;5.20;99.90
5578;DHT22;2811;51.900;10.734;2023-03-01T10:05:31;5.20;99.90
5578;DHT22;2811;51.900;10.734;2023-03-01T10:08:24;5.20;99.90
5578;DHT22;2811;51.900;10.734;2023-03-01T10:10:53;5.10;99.90
5578;DHT22;2811;51.900;10.734;2023-03-01T10:13:23;5.00;99.90
5578;DHT22;2811;51.900;10.734;2023-03-01T10:15:54;4.90;99.90
5578;DHT22;2811;51.900;10.734;2023-03-01T10:18:25;5.00;99.90
5578;DHT22;2811;51.900;10.734;2023-03-01T10:20:56;5.10;99.90
5578;DHT22;2811;51.900;10.734;2023-03-01T10:23:24;5.10;99.90
5578;DHT22;2811;51.900;10.734;2023-03-01T10:26:08;5.20;99.90
5578;DHT22;2811;51.900;10.734;2023-03-01T10:28:44;5.30;99.90
5578;DHT22;2811;51.900;10.734;2023-03-01T10:31:17;5.80;99.90
5578;DHT22;2811;51.900;10.734;2023-03-01T10:33:45;5.40;99.90
5578;DHT22;2811;51.900;10.734;2023-03-01T10:36:14;5.40;99.90
5578;DHT22;2811;51.900;10.734;2023-03-01T10:38:49;5.40;99.90
5578;DHT22;2811;51.900;10.734;2023-03-01T10:41:18;5.50;99.90
5578;DHT22;2811;51.900;10.734;2023-03-01T10:43:46;5.30;99.90
5578;DHT22;2811;51.900;10.734;2023-03-01T10:46:23;5.40;99.90
5578;DHT22;2811;51.900;10.734;2023-03-01T10:49:06;5.20;99.90
5578;DHT22;2811;51.900;10.734;2023-03-01T10:51:35;5.10;99.90
5578;DHT22;2811;51.900;10.734;2023-03-01T10:54:02;5.20;99.90
5578;DHT22;2811;51.900;10.734;2023-03-01T10:56:46;5.20;99.90
5578;DHT22;2811;51.900;10.734;2023-03-01T10:59:22;5.30;99.90
5578;DHT22;2811;51.900;10.734;2023-03-01T11:02:04;5.30;99.90
5578;DHT22;2811;51.900;10.734;2023-03-01T11:04:31;5.30;99.90
5578;DHT22;2811;51.900;10.734;2023-03-01T11:07:01;5.80;99.90
5578;DHT22;2811;51.900;10.734;2023-03-01T11:09:32;6.60;99.90
5578;DHT22;2811;51.900;10.734;2023-03-01T11:12:04;6.80;98.30
5578;DHT22;2811;51.900;10.734;2023-03-01T11:14:35;6.80;99.10
5578;DHT22;2811;51.900;10.734;2023-03-01T11:17:03;6.60;98.40
5578;DHT22;2811;51.900;10.734;2023-03-01T11:19:31;6.80;99.30
5578;DHT22;2811;51.900;10.734;2023-03-01T11:22:03;7.10;98.50
5578;DHT22;2811;51.900;10.734;2023-03-01T11:24:36;7.40;97.20
5578;DHT22;2811;51.900;10.734;2023-03-01T11:27:08;7.70;97.20
5578;DHT22;2811;51.900;10.734;2023-03-01T11:29:43;7.70;96.80
5578;DHT22;2811;51.900;10.734;2023-03-01T11:32:13;7.50;97.50
5578;DHT22;2811;51.900;10.734;2023-03-01T11:34:44;7.10;98.10
5578;DHT22;2811;51.900;10.734;2023-03-01T11:37:22;6.90;98.70
5578;DHT22;2811;51.900;10.734;2023-03-01T11:39:58;7.00;99.00
5578;DHT22;2811;51.900;10.734;2023-03-01T11:42:30;7.10;98.80
5578;DHT22;2811;51.900;10.734;2023-03-01T11:45:08;6.90;97.90
5578;DHT22;2811;51.900;10.734;2023-03-01T11:47:45;6.70;97.90
5578;DHT22;2811;51.900;10.734;2023-03-01T11:50:24;6.90;98.40
5578;DHT22;2811;51.900;10.734;2023-03-01T11:53:08;7.10;98.80
5578;DHT22;2811;51.900;10.734;2023-03-01T11:55:56;7.20;97.30
5578;DHT22;2811;51.900;10.734;2023-03-01T12:01:28;7.10;97.70
5578;DHT22;2811;51.900;10.734;2023-03-01T12:04:30;7.10;97.50
5578;DHT22;2811;51.900;10.734;2023-03-01T12:07:01;7.10;97.40
5578;DHT22;2811;51.900;10.734;2023-03-01T12:09:54;7.00;96.90
5578;DHT22;2811;51.900;10.734;2023-03-01T12:12:36;7.20;97.40
5578;DHT22;2811;51.900;10.734;2023-03-01T12:15:37;7.10;98.10
5578;DHT22;2811;51.900;10.734;2023-03-01T12:18:32;7.20;97.70
5578;DHT22;2811;51.900;10.734;2023-03-01T12:21:10;7.20;98.20
5578;DHT22;2811;51.900;10.734;2023-03-01T12:26:55;7.90;97.50
5578;DHT22;2811;51.900;10.734;2023-03-01T12:29:31;8.10;96.60
5578;DHT22;2811;51.900;10.734;2023-03-01T12:32:21;7.70;96.90
5578;DHT22;2811;51.900;10.734;2023-03-01T12:35:09;7.60;97.50
5578;DHT22;2811;51.900;10.734;2023-03-01T12:37:47;7.70;96.90
5578;DHT22;2811;51.900;10.734;2023-03-01T12:40:29;8.10;97.20
5578;DHT22;2811;51.900;10.734;2023-03-01T12:43:08;8.30;96.30
5578;DHT22;2811;51.900;10.734;2023-03-01T12:45:47;7.80;95.40
5578;DHT22;2811;51.900;10.734;2023-03-01T12:48:27;7.60;96.30
5578;DHT22;2811;51.900;10.734;2023-03-01T12:51:01;7.50;96.40
5578;DHT22;2811;51.900;10.734;2023-03-01T12:53:30;7.50;96.90
5578;DHT22;2811;51.900;10.734;2023-03-01T12:56:01;7.60;96.30
5578;DHT22;2811;51.900;10.734;2023-03-01T12:58:32;7.40;96.00
5578;DHT22;2811;51.900;10.734;2023-03-01T13:01:08;7.20;96.80
5578;DHT22;2811;51.900;10.734;2023-03-01T13:06:35;7.60;96.60
5578;DHT22;2811;51.900;10.734;2023-03-01T13:09:13;7.50;96.60
5578;DHT22;2811;51.900;10.734;2023-03-01T13:11:42;7.50;96.30
5578;DHT22;2811;51.900;10.734;2023-03-01T13:14:45;7.70;96.50
5578;DHT22;2811;51.900;10.734;2023-03-01T13:17:31;7.60;94.40
5578;DHT22;2811;51.900;10.734;2023-03-01T13:19:58;7.40;95.00
5578;DHT22;2811;51.900;10.734;2023-03-01T13:22:28;7.40;95.20
5578;DHT22;2811;51.900;10.734;2023-03-01T13:25:10;7.40;95.40
5578;DHT22;2811;51.900;10.734;2023-03-01T13:27:38;7.60;95.50
5578;DHT22;2811;51.900;10.734;2023-03-01T13:30:41;7.70;94.60
5578;DHT22;2811;51.900;10.734;2023-03-01T13:33:42;7.50;95.20
5578;DHT22;2811;51.900;10.734;2023-03-01T13:36:11;7.40;95.10
5578;DHT22;2811;51.900;10.734;2023-03-01T13:38:47;7.70;95.20
5578;DHT22;2811;51.900;10.734;2023-03-01T13:41:15;7.50;95.40
5578;DHT22;2811;51.900;10.734;2023-03-01T13:43:43;7.60;95.60
5578;DHT22;2811;51.900;10.734;2023-03-01T13:46:16;7.50;95.70
5578;DHT22;2811;51.900;10.734;2023-03-01T13:48:45;7.40;95.60
5578;DHT22;2811;51.900;10.734;2023-03-01T13:51:14;7.50;95.60
5578;DHT22;2811;51.900;10.734;2023-03-01T13:53:43;7.40;95.40
5578;DHT22;2811;51.900;10.734;2023-03-01T13:56:13;7.40;95.60
5578;DHT22;2811;51.900;10.734;2023-03-01T13:58:48;7.40;95.80
5578;DHT22;2811;51.900;10.734;2023-03-01T14:01:26;7.40;95.50
5578;DHT22;2811;51.900;10.734;2023-03-01T14:03:52;7.10;94.80
5578;DHT22;2811;51.900;10.734;2023-03-01T14:06:21;7.00;95.50
5578;DHT22;2811;51.900;10.734;2023-03-01T14:08:51;7.00;96.30
5578;DHT22;2811;51.900;10.734;2023-03-01T14:11:50;6.90;96.40
5578;DHT22;2811;51.900;10.734;2023-03-01T14:14:39;7.00;96.60
5578;DHT22;2811;51.900;10.734;2023-03-01T14:17:24;7.10;96.00
5578;DHT22;2811;51.900;10.734;2023-03-01T14:19:56;7.10;95.50
5578;DHT22;2811;51.900;10.734;2023-03-01T14:22:25;7.20;94.30
5578;DHT22;2811;51.900;10.734;2023-03-01T14:24:55;7.10;93.80
5578;DHT22;2811;51.900;10.734;2023-03-01T14:27:23;7.10;93.70
5578;DHT22;2811;51.900;10.734;2023-03-01T14:29:56;7.10;93.40
5578;DHT22;2811;51.900;10.734;2023-03-01T14:32:27;6.90;93.60
5578;DHT22;2811;51.900;10.734;2023-03-01T14:34:56;6.70;93.60
5578;DHT22;2811;51.900;10.734;2023-03-01T14:37:26;6.70;94.00
5578;DHT22;2811;51.900;10.734;2023-03-01T14:39:55;6.60;94.40
5578;DHT22;2811;51.900;10.734;2023-03-01T14:42:24;6.80;95.00
5578;DHT22;2811;51.900;10.734;2023-03-01T14:44:54;6.70;94.90
5578;DHT22;2811;51.900;10.734;2023-03-01T14:47:27;6.80;95.30
5578;DHT22;2811;51.900;10.734;2023-03-01T14:49:57;6.80;95.30
5578;DHT22;2811;51.900;10.734;2023-03-01T14:52:31;6.90;95.60
5578;DHT22;2811;51.900;10.734;2023-03-01T14:55:00;6.80;95.40
5578;DHT22;2811;51.900;10.734;2023-03-01T14:57:28;6.70;95.20
5578;DHT22;2811;51.900;10.734;2023-03-01T14:59:57;6.70;95.70
5578;DHT22;2811;51.900;10.734;2023-03-01T15:02:28;6.70;95.90
5578;DHT22;2811;51.900;10.734;2023-03-01T15:04:58;6.70;96.30
5578;DHT22;2811;51.900;10.734;2023-03-01T15:07:30;6.70;96.20
5578;DHT22;2811;51.900;10.734;2023-03-01T15:09:58;6.70;96.10
5578;DHT22;2811;51.900;10.734;2023-03-01T15:12:39;6.60;96.60
5578;DHT22;2811;51.900;10.734;2023-03-01T15:15:35;6.50;96.90
5578;DHT22;2811;51.900;10.734;2023-03-01T15:18:11;6.40;97.10
5578;DHT22;2811;51.900;10.734;2023-03-01T15:20:39;6.40;97.50
5578;DHT22;2811;51.900;10.734;2023-03-01T15:23:19;6.30;97.00
5578;DHT22;2811;51.900;10.734;2023-03-01T15:25:46;6.20;97.70
5578;DHT22;2811;51.900;10.734;2023-03-01T15:28:20;6.30;97.60
5578;DHT22;2811;51.900;10.734;2023-03-01T15:30:54;6.10;97.80
5578;DHT22;2811;51.900;10.734;2023-03-01T15:33:33;6.10;98.00
5578;DHT22;2811;51.900;10.734;2023-03-01T15:36:01;6.00;97.90
5578;DHT22;2811;51.900;10.734;2023-03-01T15:38:31;6.00;98.30
5578;DHT22;2811;51.900;10.734;2023-03-01T15:40:59;6.00;98.70
5578;DHT22;2811;51.900;10.734;2023-03-01T15:43:41;5.90;99.10
5578;DHT22;2811;51.900;10.734;2023-03-01T15:46:19;5.90;99.10
5578;DHT22;2811;51.900;10.734;2023-03-01T15:48:50;5.80;99.30
5578;DHT22;2811;51.900;10.734;2023-03-01T15:51:18;5.80;99.60
5578;DHT22;2811;51.900;10.734;2023-03-01T15:53:50;5.90;99.80
5578;DHT22;2811;51.900;10.734;2023-03-01T15:56:17;5.80;99.80
5578;DHT22;2811;51.900;10.734;2023-03-01T15:58:44;5.80;99.90
5578;DHT22;2811;51.900;10.734;2023-03-01T16:01:13;5.70;99.90
5578;DHT22;2811;51.900;10.734;2023-03-01T16:03:40;5.60;99.90
5578;DHT22;2811;51.900;10.734;2023-03-01T16:06:10;5.60;99.90
5578;DHT22;2811;51.900;10.734;2023-03-01T16:08:37;5.50;99.90
5578;DHT22;2811;51.900;10.734;2023-03-01T16:11:05;5.40;99.90
5578;DHT22;2811;51.900;10.734;2023-03-01T16:13:35;5.30;99.90
5578;DHT22;2811;51.900;10.734;2023-03-01T16:16:02;5.30;99.90
5578;DHT22;2811;51.900;10.734;2023-03-01T16:18:29;5.20;99.90
5578;DHT22;2811;51.900;10.734;2023-03-01T16:20:56;5.10;99.90
5578;DHT22;2811;51.900;10.734;2023-03-01T16:23:24;5.00;99.90
5578;DHT22;2811;51.900;10.734;2023-03-01T16:25:51;5.00;99.90